createdAt,value
2022-08-09T00:00:00.046Z,85.38
2022-08-09T00:02:33.249Z,86.72
2022-08-09T00:05:03.126Z,86.78
2022-08-09T00:07:46.990Z,86.51
2022-08-09T00:10:18.106Z,85.95
2022-08-09T00:12:51.544Z,86.15
2022-08-09T00:15:20.155Z,86.19
2022-08-09T00:18:07.665Z,86.88
2022-08-09T00:20:41.487Z,86.78
2022-08-09T00:23:58.221Z,86.62
2022-08-09T00:26:01.480Z,86.82
2022-08-09T00:28:32.052Z,87.32
2022-08-09T00:31:46.750Z,87.19
2022-08-09T00:33:51.425Z,87.47
2022-08-09T00:36:18.705Z,87.45
2022-08-09T00:38:45.422Z,87.39
2022-08-09T00:44:13.639Z,86.89
2022-08-09T00:44:15.693Z,87.68
2022-08-09T00:46:57.771Z,87.52
2022-08-09T00:49:32.780Z,87.25
2022-08-09T00:52:02.130Z,87.70
2022-08-09T00:54:36.120Z,87.32
2022-08-09T00:57:10.366Z,86.82
2022-08-09T00:59:41.540Z,86.56
2022-08-09T01:02:19.341Z,85.84
2022-08-09T01:05:14.375Z,86.02
2022-08-09T01:08:00.321Z,85.51
2022-08-09T01:10:37.445Z,85.00
2022-08-09T01:13:11.727Z,85.13
2022-08-09T01:15:52.126Z,85.11
2022-08-09T01:18:30.241Z,84.97
2022-08-09T01:21:13.489Z,85.02
2022-08-09T01:24:02.075Z,84.68
2022-08-09T01:27:10.154Z,84.70
2022-08-09T01:29:55.143Z,84.55
2022-08-09T01:32:31.067Z,84.83
2022-08-09T01:35:18.268Z,85.00
2022-08-09T01:38:07.987Z,84.15
2022-08-09T01:40:42.502Z,83.87
2022-08-09T01:43:10.927Z,84.19
2022-08-09T01:45:46.038Z,84.08
2022-08-09T01:48:15.700Z,83.80
2022-08-09T01:50:48.256Z,83.73
2022-08-09T01:53:20.149Z,84.28
2022-08-09T01:55:49.966Z,85.00
2022-08-09T01:58:17.382Z,85.33
2022-08-09T02:00:46.228Z,86.28
2022-08-09T02:03:19.397Z,87.56
2022-08-09T02:06:03.931Z,88.52
2022-08-09T02:08:57.103Z,89.43
2022-08-09T02:11:24.698Z,90.16
2022-08-09T02:14:14.970Z,90.01
2022-08-09T02:16:53.118Z,90.59
2022-08-09T02:19:38.769Z,91.32
2022-08-09T02:22:16.785Z,90.67
2022-08-09T02:24:51.869Z,90.61
2022-08-09T02:27:27.483Z,89.68
2022-08-09T02:30:10.998Z,89.71
2022-08-09T02:32:43.264Z,89.26
2022-08-09T02:35:23.112Z,89.53
2022-08-09T02:38:06.951Z,89.27
2022-08-09T02:40:36.354Z,89.07
2022-08-09T02:43:04.731Z,88.74
2022-08-09T02:45:41.928Z,88.79
2022-08-09T02:48:19.644Z,89.04
2022-08-09T02:51:02.400Z,89.40
2022-08-09T02:53:37.020Z,88.37
2022-08-09T02:56:06.689Z,87.77
2022-08-09T02:58:36.775Z,87.80
2022-08-09T03:01:08.178Z,89.35
2022-08-09T03:04:13.847Z,91.06
2022-08-09T03:06:27.922Z,92.53
2022-08-09T03:08:57.302Z,92.51
2022-08-09T03:12:05.340Z,92.64
2022-08-09T03:14:13.422Z,93.05
2022-08-09T03:16:44.836Z,93.89
2022-08-09T03:19:14.545Z,96.05
2022-08-09T03:22:03.062Z,97.68
2022-08-09T03:24:31.674Z,99.18
2022-08-09T03:27:17.411Z,99.66
2022-08-09T03:29:57.558Z,100.00
2022-08-09T03:32:30.516Z,100.00
2022-08-09T03:34:58.795Z,100.00
2022-08-09T03:37:56.662Z,100.00
2022-08-09T03:40:13.191Z,100.00
2022-08-09T03:42:43.099Z,100.00
2022-08-09T03:45:10.836Z,100.00
2022-08-09T03:47:40.226Z,100.00
2022-08-09T03:50:27.606Z,100.00
2022-08-09T03:52:57.825Z,100.00
2022-08-09T03:55:26.743Z,100.00
2022-08-09T03:58:06.342Z,100.00
2022-08-09T04:00:42.703Z,100.00
2022-08-09T04:03:11.706Z,100.00
2022-08-09T04:05:46.632Z,100.00
2022-08-09T04:08:13.148Z,100.00
2022-08-09T04:10:39.806Z,100.00
2022-08-09T04:13:12.379Z,100.00
2022-08-09T04:16:19.313Z,100.00
2022-08-09T04:18:32.168Z,100.00
2022-08-09T04:20:58.722Z,100.00
2022-08-09T04:23:25.624Z,100.00
2022-08-09T04:25:53.862Z,100.00
2022-08-09T04:28:33.978Z,100.00
2022-08-09T04:31:09.343Z,100.00
2022-08-09T04:33:47.656Z,100.00
2022-08-09T04:36:30.502Z,95.72
2022-08-09T04:39:00.831Z,91.79
2022-08-09T04:41:32.987Z,90.93
2022-08-09T04:44:05.662Z,90.35
2022-08-09T04:46:38.108Z,88.31
2022-08-09T04:49:40.295Z,86.73
2022-08-09T04:52:09.632Z,85.51
2022-08-09T04:54:36.486Z,84.87
2022-08-09T04:57:03.799Z,83.66
2022-08-09T04:59:31.465Z,83.51
2022-08-09T05:01:58.164Z,83.82
2022-08-09T05:04:31.171Z,83.10
2022-08-09T05:06:58.680Z,82.67
2022-08-09T05:09:25.242Z,82.76
2022-08-09T05:12:09.487Z,82.21
2022-08-09T05:14:37.775Z,82.00
2022-08-09T05:17:15.451Z,82.08
2022-08-09T05:19:57.054Z,81.30
2022-08-09T05:22:33.471Z,80.58
2022-08-09T05:25:05.216Z,81.13
2022-08-09T05:27:31.717Z,81.07
2022-08-09T05:29:59.056Z,81.07
2022-08-09T05:32:26.414Z,81.31
2022-08-09T05:34:56.595Z,81.20
2022-08-09T05:37:23.781Z,81.03
2022-08-09T05:39:52.339Z,81.32
2022-08-09T05:42:21.543Z,81.41
2022-08-09T05:44:52.985Z,81.07
2022-08-09T05:47:21.757Z,81.57
2022-08-09T05:50:30.096Z,81.58
2022-08-09T05:52:38.661Z,81.31
2022-08-09T05:55:07.230Z,81.46
2022-08-09T05:57:53.800Z,81.51
2022-08-09T06:00:22.342Z,81.81
2022-08-09T06:02:49.058Z,81.19
2022-08-09T06:05:20.937Z,81.63
2022-08-09T06:08:08.947Z,81.68
2022-08-09T06:10:38.614Z,81.03
2022-08-09T06:13:12.127Z,82.09
2022-08-09T06:15:44.788Z,81.53
2022-08-09T06:18:13.622Z,81.18
2022-08-09T06:20:42.793Z,81.79
2022-08-09T06:23:12.025Z,80.31
2022-08-09T06:25:42.155Z,78.88
2022-08-09T06:28:09.911Z,80.40
2022-08-09T06:30:36.369Z,78.65
2022-08-09T06:33:39.750Z,78.43
2022-08-09T06:35:57.397Z,78.22
2022-08-09T06:38:32.148Z,77.53
2022-08-09T06:41:04.510Z,76.94
2022-08-09T06:43:34.081Z,77.46
2022-08-09T06:46:06.807Z,77.01
2022-08-09T06:48:36.715Z,75.83
2022-08-09T06:51:10.473Z,75.97
2022-08-09T06:53:38.525Z,75.42
2022-08-09T06:56:09.296Z,75.18
2022-08-09T07:00:51.796Z,74.58
2022-08-09T07:01:24.243Z,74.84
2022-08-09T07:03:56.696Z,72.44
2022-08-09T07:06:28.033Z,72.75
2022-08-09T07:08:56.313Z,70.41
2022-08-09T07:11:25.388Z,70.89
2022-08-09T07:14:05.121Z,69.57
2022-08-09T07:16:42.295Z,72.15
2022-08-09T07:19:23.175Z,70.81
2022-08-09T07:21:57.167Z,70.28
2022-08-09T07:24:32.027Z,70.39
2022-08-09T07:27:01.066Z,71.23
2022-08-09T07:29:30.851Z,68.41
2022-08-09T07:32:05.491Z,67.06
2022-08-09T07:34:32.313Z,67.90
2022-08-09T07:37:02.670Z,67.37
2022-08-09T07:39:40.556Z,66.94
2022-08-09T07:42:08.390Z,65.40
2022-08-09T07:44:51.899Z,65.00
2022-08-09T07:47:49.309Z,64.53
2022-08-09T07:50:09.339Z,64.79
2022-08-09T07:52:37.672Z,64.64
2022-08-09T07:55:08.841Z,65.07
2022-08-09T07:57:36.399Z,65.84
2022-08-09T08:00:04.962Z,65.34
2022-08-09T08:02:36.030Z,65.30
2022-08-09T08:05:17.975Z,66.53
2022-08-09T08:08:43.661Z,65.76
2022-08-09T08:10:34.320Z,66.72
2022-08-09T08:13:01.031Z,67.63
2022-08-09T08:15:30.979Z,67.75
2022-08-09T08:18:04.319Z,68.28
2022-08-09T08:20:32.872Z,68.21
2022-08-09T08:23:06.306Z,68.51
2022-08-09T08:25:44.268Z,68.74
2022-08-09T08:28:14.202Z,67.61
2022-08-09T08:30:41.769Z,67.98
2022-08-09T08:33:12.199Z,67.80
2022-08-09T08:35:58.726Z,67.74
2022-08-09T08:38:27.975Z,67.87
2022-08-09T08:40:57.648Z,68.18
2022-08-09T08:43:26.594Z,68.16
2022-08-09T08:46:10.022Z,68.50
2022-08-09T08:48:51.216Z,66.84
2022-08-09T08:51:21.251Z,66.56
2022-08-09T08:54:04.511Z,65.89
2022-08-09T08:56:34.550Z,66.21
2022-08-09T08:59:18.684Z,65.02
2022-08-09T09:01:57.036Z,65.18
2022-08-09T09:04:37.858Z,63.86
2022-08-09T09:07:15.375Z,63.86
2022-08-09T09:10:01.559Z,64.36
2022-08-09T09:12:31.285Z,64.50
2022-08-09T09:15:02.114Z,61.88
2022-08-09T09:17:30.769Z,63.55
2022-08-09T09:20:15.950Z,63.53
2022-08-09T09:22:52.512Z,61.53
2022-08-09T09:26:01.002Z,59.99
2022-08-09T09:29:02.784Z,60.33
2022-08-09T09:32:01.836Z,60.71
2022-08-09T09:34:14.327Z,60.79
2022-08-09T09:36:46.653Z,60.55
2022-08-09T09:39:20.299Z,60.59
2022-08-09T09:41:49.146Z,61.12
2022-08-09T09:44:28.128Z,61.16
2022-08-09T09:47:05.685Z,58.70
2022-08-09T09:49:56.362Z,60.13
2022-08-09T09:52:36.309Z,59.35
2022-08-09T09:55:27.613Z,61.21
2022-08-09T09:58:16.236Z,59.03
2022-08-09T10:00:53.807Z,59.67
2022-08-09T10:03:56.195Z,56.75
2022-08-09T10:06:24.415Z,58.15
2022-08-09T10:08:55.335Z,58.07
2022-08-09T10:11:59.663Z,59.58
2022-08-09T10:14:27.251Z,58.14
2022-08-09T10:17:00.261Z,57.82
2022-08-09T10:19:38.665Z,56.87
2022-08-09T10:22:06.934Z,57.85
2022-08-09T10:24:36.106Z,58.54
2022-08-09T10:27:03.192Z,58.31
2022-08-09T10:30:29.996Z,57.00
2022-08-09T10:32:42.532Z,58.88
2022-08-09T10:35:10.394Z,58.01
2022-08-09T10:37:40.252Z,58.66
2022-08-09T10:40:12.173Z,57.90
2022-08-09T10:42:55.980Z,56.75
2022-08-09T10:45:24.153Z,56.71
2022-08-09T10:48:31.109Z,54.44
2022-08-09T10:51:29.614Z,53.03
2022-08-09T10:54:06.019Z,54.53
2022-08-09T10:56:40.488Z,55.39
2022-08-09T10:59:31.338Z,57.19
2022-08-09T11:03:17.888Z,53.60
2022-08-09T11:05:25.416Z,54.23
2022-08-09T11:07:59.381Z,55.26
2022-08-09T11:10:41.055Z,53.25
2022-08-09T11:13:49.008Z,52.85
2022-08-09T11:16:37.412Z,53.06
2022-08-09T11:19:09.897Z,55.22
2022-08-09T11:21:55.240Z,52.97
2022-08-09T11:24:25.017Z,53.04
2022-08-09T11:26:52.179Z,52.23
2022-08-09T11:30:06.468Z,52.32
2022-08-09T11:32:47.879Z,53.21
2022-08-09T11:35:35.320Z,53.00
2022-08-09T11:38:22.214Z,53.57
2022-08-09T11:40:55.980Z,53.18
2022-08-09T11:43:25.162Z,53.28
2022-08-09T11:45:59.517Z,52.74
2022-08-09T11:48:30.172Z,52.80
2022-08-09T11:52:49.084Z,52.92
2022-08-09T11:54:01.305Z,52.54
2022-08-09T11:56:41.530Z,52.92
2022-08-09T11:59:11.934Z,52.41
2022-08-09T12:02:17.722Z,52.79
2022-08-09T12:04:28.792Z,51.96
2022-08-09T12:06:59.133Z,51.87
2022-08-09T12:09:33.881Z,51.76
2022-08-09T12:12:12.336Z,52.32
2022-08-09T12:15:03.734Z,52.40
2022-08-09T12:17:34.549Z,52.99
2022-08-09T12:20:28.165Z,52.30
2022-08-09T12:23:01.708Z,52.75
2022-08-09T12:25:38.034Z,51.34
2022-08-09T12:29:13.384Z,51.83
2022-08-09T12:31:10.819Z,50.69
2022-08-09T12:34:00.892Z,51.23
2022-08-09T12:36:32.420Z,50.67
2022-08-09T12:39:02.483Z,50.09
2022-08-09T12:41:39.262Z,50.26
2022-08-09T12:44:12.891Z,51.36
2022-08-09T12:46:49.904Z,51.14
2022-08-09T12:49:18.033Z,51.53
2022-08-09T12:52:02.293Z,51.75
2022-08-09T12:55:03.290Z,50.27
2022-08-09T12:57:43.100Z,51.37
2022-08-09T13:00:25.781Z,50.26
2022-08-09T13:02:58.299Z,50.19
2022-08-09T13:05:27.683Z,51.95
2022-08-09T13:08:21.245Z,52.48
2022-08-09T13:11:22.644Z,51.84
2022-08-09T13:14:41.251Z,52.71
2022-08-09T13:16:57.446Z,50.29
2022-08-09T13:20:06.809Z,50.99
2022-08-09T13:22:37.693Z,52.22
2022-08-09T13:25:04.011Z,50.91
2022-08-09T13:27:55.100Z,52.46
2022-08-09T13:30:48.839Z,50.81
2022-08-09T13:33:35.882Z,50.04
2022-08-09T13:36:24.187Z,50.13
2022-08-09T13:41:19.327Z,50.18
2022-08-09T13:42:01.033Z,50.14
2022-08-09T13:44:29.293Z,50.42
2022-08-09T13:47:25.273Z,50.45
2022-08-09T13:49:57.532Z,50.62
2022-08-09T13:52:25.942Z,50.84
2022-08-09T13:54:59.863Z,51.94
2022-08-09T13:57:36.459Z,51.06
2022-08-09T14:00:08.770Z,51.11
2022-08-09T14:02:36.399Z,51.75
2022-08-09T14:05:09.807Z,51.00
2022-08-09T14:07:41.281Z,51.66
2022-08-09T14:10:17.215Z,50.85
2022-08-09T14:12:55.416Z,50.96
2022-08-09T14:16:09.834Z,50.39
2022-08-09T14:18:19.799Z,51.49
2022-08-09T14:20:57.003Z,52.17
2022-08-09T14:23:40.694Z,50.47
2022-08-09T14:26:10.262Z,50.83
2022-08-09T14:28:37.722Z,50.92
2022-08-09T14:31:04.302Z,50.34
2022-08-09T14:33:30.967Z,50.11
2022-08-09T14:36:19.718Z,49.94
2022-08-09T14:38:53.000Z,49.56
2022-08-09T14:41:34.529Z,49.84
2022-08-09T14:44:06.489Z,48.76
2022-08-09T14:46:57.566Z,49.34
2022-08-09T14:49:23.692Z,50.08
2022-08-09T14:51:50.979Z,50.01
2022-08-09T14:54:27.899Z,50.20
2022-08-09T14:56:57.597Z,48.90
2022-08-09T14:59:24.865Z,48.32
2022-08-09T15:01:53.628Z,49.09
2022-08-09T15:04:20.176Z,49.32
2022-08-09T15:06:50.259Z,48.35
2022-08-09T15:10:03.091Z,49.08
2022-08-09T15:12:07.818Z,48.21
2022-08-09T15:14:38.521Z,47.34
2022-08-09T15:17:07.740Z,47.86
2022-08-09T15:19:36.472Z,48.60
2022-08-09T15:22:03.432Z,49.05
2022-08-09T15:24:30.185Z,49.15
2022-08-09T15:26:57.636Z,48.95
2022-08-09T15:30:58.280Z,49.35
2022-08-09T15:32:29.764Z,49.17
2022-08-09T15:35:00.293Z,48.52
2022-08-09T15:37:37.702Z,48.01
2022-08-09T15:40:25.309Z,48.26
2022-08-09T15:42:59.233Z,47.90
2022-08-09T15:45:29.847Z,48.04
2022-08-09T15:48:05.202Z,48.22
2022-08-09T15:50:33.399Z,48.74
2022-08-09T15:53:06.107Z,48.43
2022-08-09T15:55:34.497Z,48.41
2022-08-09T15:58:26.821Z,49.09
2022-08-09T16:00:54.094Z,49.27
2022-08-09T16:03:29.641Z,49.13
2022-08-09T16:06:06.814Z,48.30
2022-08-09T16:08:44.608Z,47.46
2022-08-09T16:11:16.289Z,47.58
2022-08-09T16:14:03.637Z,47.59
2022-08-09T16:16:31.605Z,47.11
2022-08-09T16:18:58.718Z,46.75
2022-08-09T16:21:26.465Z,47.46
2022-08-09T16:24:02.012Z,47.63
2022-08-09T16:26:35.125Z,47.55
2022-08-09T16:29:11.134Z,47.12
2022-08-09T16:32:19.900Z,46.82
2022-08-09T16:34:27.012Z,47.36
2022-08-09T16:36:55.897Z,47.36
2022-08-09T16:39:25.959Z,47.04
2022-08-09T16:42:04.049Z,46.97
2022-08-09T16:44:32.098Z,46.45
2022-08-09T16:47:03.787Z,45.90
2022-08-09T16:50:28.736Z,45.69
2022-08-09T16:52:17.367Z,46.09
2022-08-09T16:54:45.864Z,46.77
2022-08-09T16:57:12.374Z,47.60
2022-08-09T16:59:43.853Z,47.95
2022-08-09T17:02:17.841Z,47.23
2022-08-09T17:04:50.281Z,47.71
2022-08-09T17:08:44.245Z,48.10
2022-08-09T17:10:07.752Z,47.92
2022-08-09T17:12:35.749Z,47.92
2022-08-09T17:15:02.489Z,47.89
2022-08-09T17:17:50.953Z,47.83
2022-08-09T17:20:32.472Z,47.44
2022-08-09T17:23:04.958Z,47.67
2022-08-09T17:25:37.114Z,47.38
2022-08-09T17:28:06.383Z,47.68
2022-08-09T17:30:34.086Z,47.31
2022-08-09T17:33:05.053Z,47.26
2022-08-09T17:35:34.292Z,46.86
2022-08-09T17:38:12.000Z,46.93
2022-08-09T17:40:47.583Z,46.65
2022-08-09T17:43:34.180Z,46.93
2022-08-09T17:46:06.638Z,47.48
2022-08-09T17:48:38.640Z,47.39
2022-08-09T17:51:09.447Z,48.06
2022-08-09T17:53:48.201Z,48.66
2022-08-09T17:56:20.429Z,48.91
2022-08-09T17:58:47.219Z,49.22
2022-08-09T18:01:15.639Z,49.68
2022-08-09T18:03:49.359Z,50.18
2022-08-09T18:06:31.274Z,50.87
2022-08-09T18:09:04.561Z,51.51
2022-08-09T18:12:04.775Z,51.44
2022-08-09T18:14:21.566Z,52.08
2022-08-09T18:16:49.715Z,52.37
2022-08-09T18:20:54.657Z,52.92
2022-08-09T18:22:04.051Z,53.16
2022-08-09T18:24:31.017Z,53.61
2022-08-09T18:26:57.650Z,53.92
2022-08-09T18:30:41.574Z,54.36
2022-08-09T18:32:14.441Z,55.06
2022-08-09T18:34:45.823Z,56.56
2022-08-09T18:37:47.395Z,55.71
2022-08-09T18:40:01.799Z,55.84
2022-08-09T18:42:29.439Z,55.56
2022-08-09T18:44:56.953Z,55.35
2022-08-09T18:47:27.595Z,56.09
2022-08-09T18:50:03.040Z,56.57
2022-08-09T18:52:34.604Z,58.07
2022-08-09T18:55:02.007Z,59.16
2022-08-09T18:57:43.268Z,59.62
2022-08-09T19:00:16.304Z,59.84
2022-08-09T19:02:46.458Z,59.55
2022-08-09T19:05:20.629Z,59.50
2022-08-09T19:08:04.894Z,59.48
2022-08-09T19:10:39.240Z,59.51
2022-08-09T19:13:20.763Z,59.59
2022-08-09T19:15:52.071Z,59.66
2022-08-09T19:18:33.975Z,60.13
2022-08-09T19:21:03.432Z,60.31
2022-08-09T19:24:33.389Z,60.56
2022-08-09T19:26:18.862Z,60.91
2022-08-09T19:28:55.961Z,60.79
2022-08-09T19:31:27.872Z,60.85
2022-08-09T19:33:57.913Z,61.10
2022-08-09T19:36:30.989Z,61.23
2022-08-09T19:39:03.522Z,61.29
2022-08-09T19:41:33.107Z,60.81
2022-08-09T19:44:03.371Z,61.66
2022-08-09T19:46:35.150Z,60.75
2022-08-09T19:50:09.277Z,61.51
2022-08-09T19:51:55.278Z,61.16
2022-08-09T19:54:27.023Z,61.48
2022-08-09T19:56:55.358Z,61.07
2022-08-09T19:59:58.443Z,61.05
2022-08-09T20:04:12.370Z,60.90
2022-08-09T20:04:58.746Z,61.65
2022-08-09T20:07:26.188Z,61.09
2022-08-09T20:10:17.701Z,61.59
2022-08-09T20:12:49.004Z,61.61
2022-08-09T20:16:38.055Z,61.40
2022-08-09T20:18:02.790Z,61.89
2022-08-09T20:20:29.376Z,61.88
2022-08-09T20:22:56.757Z,61.99
2022-08-09T20:25:23.852Z,62.09
2022-08-09T20:27:51.014Z,62.62
2022-08-09T20:30:18.065Z,62.53
2022-08-09T20:32:52.367Z,63.38
2022-08-09T20:35:20.353Z,63.53
2022-08-09T20:38:21.201Z,63.46
2022-08-09T20:40:33.517Z,64.21
2022-08-09T20:43:19.144Z,64.17
2022-08-09T20:45:59.543Z,63.61
2022-08-09T20:48:36.794Z,63.33
2022-08-09T20:51:04.039Z,63.82
2022-08-09T20:53:37.509Z,64.02
2022-08-09T20:56:07.197Z,64.41
2022-08-09T20:58:35.598Z,64.14
2022-08-09T21:01:32.741Z,64.53
2022-08-09T21:05:49.037Z,63.99
2022-08-09T21:06:41.390Z,64.42
2022-08-09T21:09:11.857Z,64.57
2022-08-09T21:14:30.823Z,64.17
2022-08-09T21:16:59.357Z,64.16
2022-08-09T21:20:17.131Z,64.11
2022-08-09T21:22:35.700Z,64.16
2022-08-09T21:25:17.834Z,63.90
2022-08-09T21:27:52.216Z,64.40
2022-08-09T21:30:19.959Z,64.46
2022-08-09T21:32:49.344Z,64.16
2022-08-09T21:35:16.528Z,64.59
2022-08-09T21:37:58.860Z,64.32
2022-08-09T21:40:30.742Z,64.35
2022-08-09T21:43:00.068Z,65.02
2022-08-09T21:45:27.542Z,65.00
2022-08-09T21:47:54.073Z,65.33
2022-08-09T21:50:26.201Z,65.16
2022-08-09T21:53:06.916Z,65.57
2022-08-09T21:55:46.847Z,65.29
2022-08-09T21:58:13.522Z,65.24
2022-08-09T22:00:40.764Z,65.47
2022-08-09T22:03:12.534Z,65.35
2022-08-09T22:05:46.372Z,65.54
2022-08-09T22:08:18.434Z,64.96
2022-08-09T22:11:04.861Z,64.49
2022-08-09T22:13:35.731Z,64.39
2022-08-09T22:16:07.526Z,64.76
2022-08-09T22:18:35.092Z,64.32
2022-08-09T22:21:09.362Z,63.95
2022-08-09T22:23:59.025Z,64.10
2022-08-09T22:26:34.294Z,63.51
2022-08-09T22:29:06.767Z,63.95
2022-08-09T22:31:35.493Z,63.94
2022-08-09T22:34:02.565Z,64.38
2022-08-09T22:36:29.014Z,64.63
2022-08-09T22:39:04.166Z,65.15
2022-08-09T22:41:30.809Z,66.46
2022-08-09T22:44:01.278Z,67.54
2022-08-09T22:48:11.472Z,68.67
2022-08-09T22:49:17.198Z,69.02
2022-08-09T22:51:56.350Z,69.24
2022-08-09T22:54:27.121Z,68.92
2022-08-09T22:56:56.866Z,68.89
2022-08-09T22:59:57.299Z,69.30
2022-08-09T23:02:11.128Z,70.65
2022-08-09T23:04:42.422Z,71.71
2022-08-09T23:08:21.360Z,73.03
2022-08-09T23:10:13.993Z,73.12
2022-08-09T23:12:40.542Z,72.42
2022-08-09T23:15:07.425Z,71.96
2022-08-09T23:17:34.204Z,71.59
2022-08-09T23:20:07.922Z,71.19
2022-08-09T23:22:35.869Z,70.79
2022-08-09T23:25:04.581Z,70.47
2022-08-09T23:27:31.083Z,70.34
2022-08-09T23:29:57.611Z,70.51
2022-08-09T23:32:24.119Z,71.57
2022-08-09T23:34:50.671Z,72.56
2022-08-09T23:37:21.305Z,73.34
2022-08-09T23:39:49.580Z,74.28
2022-08-09T23:42:16.144Z,74.32
2022-08-09T23:44:42.704Z,74.49
2022-08-09T23:47:09.271Z,74.76
2022-08-09T23:49:35.750Z,74.65
2022-08-09T23:52:02.264Z,74.94
2022-08-09T23:54:28.753Z,75.18
2022-08-09T23:56:58.405Z,74.91
2022-08-09T23:59:25.884Z,75.27
